sensor_id;sensor_type;location;lat;lon;timestamp;P1;durP1;ratioP1;P2;durP2;ratioP2
38238;SDS011;24035;48.900;9.188;2023-07-08T00:01:39;2.95;;;1.10;;
38238;SDS011;24035;48.900;9.188;2023-07-08T00:04:05;3.97;;;1.27;;
38238;SDS011;24035;48.900;9.188;2023-07-08T00:06:32;2.83;;;1.17;;
38238;SDS011;24035;48.900;9.188;2023-07-08T00:09:00;3.17;;;1.17;;
38238;SDS011;24035;48.900;9.188;2023-07-08T00:11:26;5.18;;;1.50;;
38238;SDS011;24035;48.900;9.188;2023-07-08T00:13:54;4.95;;;1.52;;
38238;SDS011;24035;48.900;9.188;2023-07-08T00:16:19;4.53;;;1.33;;
38238;SDS011;24035;48.900;9.188;2023-07-08T00:18:46;3.58;;;0.90;;
38238;SDS011;24035;48.900;9.188;2023-07-08T00:21:15;3.22;;;1.30;;
38238;SDS011;24035;48.900;9.188;2023-07-08T00:23:48;3.33;;;1.35;;
38238;SDS011;24035;48.900;9.188;2023-07-08T00:26:19;4.00;;;1.55;;
38238;SDS011;24035;48.900;9.188;2023-07-08T00:28:49;4.82;;;1.40;;
38238;SDS011;24035;48.900;9.188;2023-07-08T00:31:15;5.53;;;1.42;;
38238;SDS011;24035;48.900;9.188;2023-07-08T00:33:40;3.13;;;1.15;;
38238;SDS011;24035;48.900;9.188;2023-07-08T00:36:13;4.72;;;0.93;;
38238;SDS011;24035;48.900;9.188;2023-07-08T00:38:40;4.15;;;1.10;;
38238;SDS011;24035;48.900;9.188;2023-07-08T00:41:32;3.33;;;1.08;;
38238;SDS011;24035;48.900;9.188;2023-07-08T00:43:57;3.88;;;1.40;;
38238;SDS011;24035;48.900;9.188;2023-07-08T00:51:32;5.95;;;1.40;;
38238;SDS011;24035;48.900;9.188;2023-07-08T00:53:59;6.03;;;1.88;;
38238;SDS011;24035;48.900;9.188;2023-07-08T00:56:25;5.15;;;1.35;;
38238;SDS011;24035;48.900;9.188;2023-07-08T00:59:01;6.07;;;1.73;;
38238;SDS011;24035;48.900;9.188;2023-07-08T01:01:32;2.10;;;0.90;;
38238;SDS011;24035;48.900;9.188;2023-07-08T01:04:04;3.60;;;1.00;;
38238;SDS011;24035;48.900;9.188;2023-07-08T01:06:36;3.33;;;1.08;;
38238;SDS011;24035;48.900;9.188;2023-07-08T01:09:05;4.15;;;1.20;;
38238;SDS011;24035;48.900;9.188;2023-07-08T01:11:34;3.10;;;1.23;;
38238;SDS011;24035;48.900;9.188;2023-07-08T01:14:04;4.95;;;1.92;;
38238;SDS011;24035;48.900;9.188;2023-07-08T01:16:32;3.00;;;1.42;;
38238;SDS011;24035;48.900;9.188;2023-07-08T01:18:59;3.38;;;1.42;;
38238;SDS011;24035;48.900;9.188;2023-07-08T01:24:03;3.83;;;1.48;;
38238;SDS011;24035;48.900;9.188;2023-07-08T01:26:33;3.72;;;1.50;;
38238;SDS011;24035;48.900;9.188;2023-07-08T01:29:02;3.42;;;1.20;;
38238;SDS011;24035;48.900;9.188;2023-07-08T01:31:29;3.78;;;1.00;;
38238;SDS011;24035;48.900;9.188;2023-07-08T01:33:55;4.28;;;1.00;;
38238;SDS011;24035;48.900;9.188;2023-07-08T01:36:21;3.65;;;1.48;;
38238;SDS011;24035;48.900;9.188;2023-07-08T01:38:47;2.38;;;0.73;;
38238;SDS011;24035;48.900;9.188;2023-07-08T01:41:13;3.17;;;0.90;;
38238;SDS011;24035;48.900;9.188;2023-07-08T01:43:41;2.30;;;1.08;;
38238;SDS011;24035;48.900;9.188;2023-07-08T01:46:15;3.35;;;1.10;;
38238;SDS011;24035;48.900;9.188;2023-07-08T01:48:48;4.10;;;1.23;;
38238;SDS011;24035;48.900;9.188;2023-07-08T01:51:21;1.42;;;0.50;;
38238;SDS011;24035;48.900;9.188;2023-07-08T01:53:48;2.92;;;1.27;;
38238;SDS011;24035;48.900;9.188;2023-07-08T01:56:14;4.40;;;1.23;;
38238;SDS011;24035;48.900;9.188;2023-07-08T01:58:40;2.55;;;1.02;;
38238;SDS011;24035;48.900;9.188;2023-07-08T02:01:07;3.92;;;1.20;;
38238;SDS011;24035;48.900;9.188;2023-07-08T02:03:33;3.75;;;1.52;;
38238;SDS011;24035;48.900;9.188;2023-07-08T02:05:59;6.13;;;1.45;;
38238;SDS011;24035;48.900;9.188;2023-07-08T02:08:25;3.58;;;1.30;;
38238;SDS011;24035;48.900;9.188;2023-07-08T02:10:55;3.42;;;1.35;;
38238;SDS011;24035;48.900;9.188;2023-07-08T02:13:22;3.85;;;1.20;;
38238;SDS011;24035;48.900;9.188;2023-07-08T02:15:48;4.40;;;1.65;;
38238;SDS011;24035;48.900;9.188;2023-07-08T02:18:15;3.03;;;1.00;;
38238;SDS011;24035;48.900;9.188;2023-07-08T02:20:44;2.72;;;1.10;;
38238;SDS011;24035;48.900;9.188;2023-07-08T02:23:11;3.20;;;1.25;;
38238;SDS011;24035;48.900;9.188;2023-07-08T02:25:36;4.85;;;1.80;;
38238;SDS011;24035;48.900;9.188;2023-07-08T02:28:02;5.32;;;0.98;;
38238;SDS011;24035;48.900;9.188;2023-07-08T02:30:29;4.43;;;1.38;;
38238;SDS011;24035;48.900;9.188;2023-07-08T02:32:55;4.35;;;1.77;;
38238;SDS011;24035;48.900;9.188;2023-07-08T02:35:27;2.97;;;0.98;;
38238;SDS011;24035;48.900;9.188;2023-07-08T02:37:54;11.88;;;1.50;;
38238;SDS011;24035;48.900;9.188;2023-07-08T02:40:21;3.63;;;1.30;;
38238;SDS011;24035;48.900;9.188;2023-07-08T02:42:47;4.45;;;1.25;;
38238;SDS011;24035;48.900;9.188;2023-07-08T02:45:14;3.00;;;0.90;;
38238;SDS011;24035;48.900;9.188;2023-07-08T02:47:40;4.03;;;1.00;;
38238;SDS011;24035;48.900;9.188;2023-07-08T02:50:07;3.28;;;1.00;;
38238;SDS011;24035;48.900;9.188;2023-07-08T02:52:34;5.70;;;1.55;;
38238;SDS011;24035;48.900;9.188;2023-07-08T02:55:00;3.95;;;1.40;;
38238;SDS011;24035;48.900;9.188;2023-07-08T02:57:26;3.15;;;0.98;;
38238;SDS011;24035;48.900;9.188;2023-07-08T02:59:51;1.95;;;0.65;;
38238;SDS011;24035;48.900;9.188;2023-07-08T03:02:17;3.22;;;1.27;;
38238;SDS011;24035;48.900;9.188;2023-07-08T03:04:43;4.38;;;1.10;;
38238;SDS011;24035;48.900;9.188;2023-07-08T03:07:10;3.63;;;1.17;;
38238;SDS011;24035;48.900;9.188;2023-07-08T03:09:37;6.32;;;1.83;;
38238;SDS011;24035;48.900;9.188;2023-07-08T03:12:06;3.53;;;1.15;;
38238;SDS011;24035;48.900;9.188;2023-07-08T03:14:33;3.63;;;1.48;;
38238;SDS011;24035;48.900;9.188;2023-07-08T03:16:59;2.88;;;1.27;;
38238;SDS011;24035;48.900;9.188;2023-07-08T03:19:25;2.65;;;1.45;;
38238;SDS011;24035;48.900;9.188;2023-07-08T03:21:51;3.72;;;1.33;;
38238;SDS011;24035;48.900;9.188;2023-07-08T03:24:17;2.05;;;0.82;;
38238;SDS011;24035;48.900;9.188;2023-07-08T03:26:43;4.53;;;1.23;;
38238;SDS011;24035;48.900;9.188;2023-07-08T03:29:17;3.40;;;1.58;;
38238;SDS011;24035;48.900;9.188;2023-07-08T03:31:44;4.70;;;1.35;;
38238;SDS011;24035;48.900;9.188;2023-07-08T03:34:11;2.60;;;0.85;;
38238;SDS011;24035;48.900;9.188;2023-07-08T03:36:45;5.05;;;1.25;;
38238;SDS011;24035;48.900;9.188;2023-07-08T03:39:19;2.95;;;1.23;;
38238;SDS011;24035;48.900;9.188;2023-07-08T03:41:47;3.97;;;1.20;;
38238;SDS011;24035;48.900;9.188;2023-07-08T03:44:14;3.63;;;1.70;;
38238;SDS011;24035;48.900;9.188;2023-07-08T03:46:47;3.83;;;1.05;;
38238;SDS011;24035;48.900;9.188;2023-07-08T03:49:17;3.53;;;1.58;;
38238;SDS011;24035;48.900;9.188;2023-07-08T03:51:48;1.77;;;0.80;;
38238;SDS011;24035;48.900;9.188;2023-07-08T03:54:15;3.97;;;1.08;;
38238;SDS011;24035;48.900;9.188;2023-07-08T04:00:03;3.05;;;1.10;;
38238;SDS011;24035;48.900;9.188;2023-07-08T04:02:29;3.08;;;1.20;;
38238;SDS011;24035;48.900;9.188;2023-07-08T04:04:55;2.55;;;0.68;;
38238;SDS011;24035;48.900;9.188;2023-07-08T04:07:21;3.00;;;1.27;;
38238;SDS011;24035;48.900;9.188;2023-07-08T04:09:47;1.90;;;0.82;;
38238;SDS011;24035;48.900;9.188;2023-07-08T04:12:15;4.13;;;1.23;;
38238;SDS011;24035;48.900;9.188;2023-07-08T04:14:41;2.83;;;1.02;;
38238;SDS011;24035;48.900;9.188;2023-07-08T04:17:08;5.55;;;1.58;;
38238;SDS011;24035;48.900;9.188;2023-07-08T04:19:34;3.28;;;1.13;;
38238;SDS011;24035;48.900;9.188;2023-07-08T04:22:01;3.72;;;1.33;;
38238;SDS011;24035;48.900;9.188;2023-07-08T04:24:28;3.33;;;1.20;;
38238;SDS011;24035;48.900;9.188;2023-07-08T04:26:54;3.30;;;1.42;;
38238;SDS011;24035;48.900;9.188;2023-07-08T04:29:20;3.47;;;1.35;;
38238;SDS011;24035;48.900;9.188;2023-07-08T04:31:47;3.60;;;1.23;;
38238;SDS011;24035;48.900;9.188;2023-07-08T04:34:13;5.28;;;1.35;;
38238;SDS011;24035;48.900;9.188;2023-07-08T04:36:40;3.83;;;1.30;;
38238;SDS011;24035;48.900;9.188;2023-07-08T04:39:06;3.25;;;1.02;;
38238;SDS011;24035;48.900;9.188;2023-07-08T04:41:33;2.53;;;1.00;;
38238;SDS011;24035;48.900;9.188;2023-07-08T04:44:05;3.53;;;1.10;;
38238;SDS011;24035;48.900;9.188;2023-07-08T04:46:34;3.70;;;1.10;;
38238;SDS011;24035;48.900;9.188;2023-07-08T04:49:05;4.97;;;1.52;;
38238;SDS011;24035;48.900;9.188;2023-07-08T04:51:32;3.67;;;1.27;;
38238;SDS011;24035;48.900;9.188;2023-07-08T04:53:58;4.07;;;1.30;;
38238;SDS011;24035;48.900;9.188;2023-07-08T04:56:25;2.95;;;1.42;;
38238;SDS011;24035;48.900;9.188;2023-07-08T04:59:01;3.13;;;1.30;;
38238;SDS011;24035;48.900;9.188;2023-07-08T05:01:30;5.07;;;1.10;;
38238;SDS011;24035;48.900;9.188;2023-07-08T05:03:56;2.58;;;0.90;;
38238;SDS011;24035;48.900;9.188;2023-07-08T05:06:21;3.45;;;1.30;;
38238;SDS011;24035;48.900;9.188;2023-07-08T05:08:47;3.45;;;1.25;;
38238;SDS011;24035;48.900;9.188;2023-07-08T05:11:13;2.65;;;1.00;;
38238;SDS011;24035;48.900;9.188;2023-07-08T05:13:38;3.42;;;1.35;;
38238;SDS011;24035;48.900;9.188;2023-07-08T05:16:04;4.97;;;1.40;;
38238;SDS011;24035;48.900;9.188;2023-07-08T05:21:48;3.92;;;1.30;;
38238;SDS011;24035;48.900;9.188;2023-07-08T05:24:13;4.57;;;1.48;;
38238;SDS011;24035;48.900;9.188;2023-07-08T05:26:39;2.47;;;0.90;;
38238;SDS011;24035;48.900;9.188;2023-07-08T05:29:05;3.47;;;1.40;;
38238;SDS011;24035;48.900;9.188;2023-07-08T05:31:32;4.00;;;1.05;;
38238;SDS011;24035;48.900;9.188;2023-07-08T05:33:59;5.15;;;1.30;;
38238;SDS011;24035;48.900;9.188;2023-07-08T05:36:25;3.03;;;1.15;;
38238;SDS011;24035;48.900;9.188;2023-07-08T05:38:51;8.02;;;1.30;;
38238;SDS011;24035;48.900;9.188;2023-07-08T05:41:17;5.78;;;2.30;;
38238;SDS011;24035;48.900;9.188;2023-07-08T05:47:05;2.58;;;1.02;;
38238;SDS011;24035;48.900;9.188;2023-07-08T05:49:30;6.47;;;1.73;;
38238;SDS011;24035;48.900;9.188;2023-07-08T05:51:56;3.00;;;1.23;;
38238;SDS011;24035;48.900;9.188;2023-07-08T05:54:22;3.30;;;1.30;;
38238;SDS011;24035;48.900;9.188;2023-07-08T05:56:48;4.35;;;1.40;;
38238;SDS011;24035;48.900;9.188;2023-07-08T05:59:13;3.03;;;1.35;;
38238;SDS011;24035;48.900;9.188;2023-07-08T06:01:39;3.47;;;1.30;;
38238;SDS011;24035;48.900;9.188;2023-07-08T06:04:05;4.15;;;1.48;;
38238;SDS011;24035;48.900;9.188;2023-07-08T06:06:30;3.95;;;1.52;;
38238;SDS011;24035;48.900;9.188;2023-07-08T06:08:56;6.38;;;1.77;;
38238;SDS011;24035;48.900;9.188;2023-07-08T06:11:22;3.85;;;1.30;;
38238;SDS011;24035;48.900;9.188;2023-07-08T06:13:48;4.65;;;1.23;;
38238;SDS011;24035;48.900;9.188;2023-07-08T06:16:13;3.17;;;1.20;;
38238;SDS011;24035;48.900;9.188;2023-07-08T06:18:39;4.30;;;1.85;;
38238;SDS011;24035;48.900;9.188;2023-07-08T06:21:05;3.53;;;1.58;;
38238;SDS011;24035;48.900;9.188;2023-07-08T06:23:31;3.75;;;1.73;;
38238;SDS011;24035;48.900;9.188;2023-07-08T06:25:57;5.13;;;1.90;;
38238;SDS011;24035;48.900;9.188;2023-07-08T06:28:23;4.32;;;2.05;;
38238;SDS011;24035;48.900;9.188;2023-07-08T06:30:49;3.78;;;1.63;;
38238;SDS011;24035;48.900;9.188;2023-07-08T06:33:15;5.75;;;2.45;;
38238;SDS011;24035;48.900;9.188;2023-07-08T06:39:03;4.00;;;2.07;;
38238;SDS011;24035;48.900;9.188;2023-07-08T06:41:32;3.30;;;1.85;;
38238;SDS011;24035;48.900;9.188;2023-07-08T06:49:47;3.92;;;1.65;;
38238;SDS011;24035;48.900;9.188;2023-07-08T06:52:13;4.50;;;1.95;;
38238;SDS011;24035;48.900;9.188;2023-07-08T06:54:40;3.67;;;1.73;;
38238;SDS011;24035;48.900;9.188;2023-07-08T06:57:05;3.08;;;1.58;;
38238;SDS011;24035;48.900;9.188;2023-07-08T06:59:32;4.13;;;1.77;;
38238;SDS011;24035;48.900;9.188;2023-07-08T07:01:58;4.35;;;1.55;;
38238;SDS011;24035;48.900;9.188;2023-07-08T07:04:24;4.45;;;2.28;;
38238;SDS011;24035;48.900;9.188;2023-07-08T07:06:50;4.38;;;1.88;;
38238;SDS011;24035;48.900;9.188;2023-07-08T07:09:16;4.07;;;1.38;;
38238;SDS011;24035;48.900;9.188;2023-07-08T07:15:04;5.30;;;1.60;;
38238;SDS011;24035;48.900;9.188;2023-07-08T07:17:30;3.88;;;1.42;;
38238;SDS011;24035;48.900;9.188;2023-07-08T07:19:56;4.43;;;1.30;;
38238;SDS011;24035;48.900;9.188;2023-07-08T07:22:22;4.57;;;1.70;;
38238;SDS011;24035;48.900;9.188;2023-07-08T07:24:48;4.22;;;1.30;;
38238;SDS011;24035;48.900;9.188;2023-07-08T07:27:14;2.95;;;1.27;;
38238;SDS011;24035;48.900;9.188;2023-07-08T07:29:41;3.30;;;1.40;;
38238;SDS011;24035;48.900;9.188;2023-07-08T07:32:09;6.68;;;1.73;;
38238;SDS011;24035;48.900;9.188;2023-07-08T07:34:36;6.80;;;1.48;;
38238;SDS011;24035;48.900;9.188;2023-07-08T07:37:03;6.93;;;1.50;;
38238;SDS011;24035;48.900;9.188;2023-07-08T07:39:29;3.25;;;1.50;;
38238;SDS011;24035;48.900;9.188;2023-07-08T07:41:55;4.43;;;1.40;;
38238;SDS011;24035;48.900;9.188;2023-07-08T07:44:20;3.88;;;1.27;;
38238;SDS011;24035;48.900;9.188;2023-07-08T07:46:46;4.47;;;1.45;;
38238;SDS011;24035;48.900;9.188;2023-07-08T07:49:12;3.80;;;1.45;;
38238;SDS011;24035;48.900;9.188;2023-07-08T07:51:38;2.85;;;1.20;;
38238;SDS011;24035;48.900;9.188;2023-07-08T07:57:26;4.15;;;1.13;;
38238;SDS011;24035;48.900;9.188;2023-07-08T07:59:52;2.80;;;1.10;;
38238;SDS011;24035;48.900;9.188;2023-07-08T08:02:18;2.83;;;1.35;;
38238;SDS011;24035;48.900;9.188;2023-07-08T08:04:44;3.53;;;1.30;;
38238;SDS011;24035;48.900;9.188;2023-07-08T08:07:11;3.05;;;1.00;;
38238;SDS011;24035;48.900;9.188;2023-07-08T08:09:37;3.72;;;1.50;;
38238;SDS011;24035;48.900;9.188;2023-07-08T08:12:03;3.33;;;1.25;;
38238;SDS011;24035;48.900;9.188;2023-07-08T08:14:29;3.83;;;1.02;;
38238;SDS011;24035;48.900;9.188;2023-07-08T08:16:56;3.25;;;1.38;;
38238;SDS011;24035;48.900;9.188;2023-07-08T08:19:21;3.97;;;1.40;;
38238;SDS011;24035;48.900;9.188;2023-07-08T08:21:48;4.25;;;1.23;;
38238;SDS011;24035;48.900;9.188;2023-07-08T08:24:13;3.10;;;1.70;;
38238;SDS011;24035;48.900;9.188;2023-07-08T08:26:39;4.38;;;1.88;;
38238;SDS011;24035;48.900;9.188;2023-07-08T08:29:05;4.07;;;1.80;;
38238;SDS011;24035;48.900;9.188;2023-07-08T08:31:31;6.43;;;1.40;;
38238;SDS011;24035;48.900;9.188;2023-07-08T08:33:57;2.50;;;1.00;;
38238;SDS011;24035;48.900;9.188;2023-07-08T08:36:23;4.00;;;1.27;;
38238;SDS011;24035;48.900;9.188;2023-07-08T08:38:48;3.28;;;1.48;;
38238;SDS011;24035;48.900;9.188;2023-07-08T08:41:16;5.35;;;1.70;;
38238;SDS011;24035;48.900;9.188;2023-07-08T08:43:43;4.82;;;1.73;;
38238;SDS011;24035;48.900;9.188;2023-07-08T08:46:14;3.78;;;1.55;;
38238;SDS011;24035;48.900;9.188;2023-07-08T08:48:51;3.25;;;1.60;;
38238;SDS011;24035;48.900;9.188;2023-07-08T08:51:24;4.45;;;1.48;;
38238;SDS011;24035;48.900;9.188;2023-07-08T08:53:54;2.92;;;1.58;;
38238;SDS011;24035;48.900;9.188;2023-07-08T08:56:27;2.78;;;1.38;;
38238;SDS011;24035;48.900;9.188;2023-07-08T09:02:33;3.75;;;1.23;;
38238;SDS011;24035;48.900;9.188;2023-07-08T09:05:10;3.22;;;1.52;;
38238;SDS011;24035;48.900;9.188;2023-07-08T09:10:44;3.28;;;1.30;;
38238;SDS011;24035;48.900;9.188;2023-07-08T09:13:31;3.15;;;1.25;;
38238;SDS011;24035;48.900;9.188;2023-07-08T09:16:05;3.88;;;1.48;;
38238;SDS011;24035;48.900;9.188;2023-07-08T09:19:22;3.40;;;1.25;;
38238;SDS011;24035;48.900;9.188;2023-07-08T09:21:47;3.40;;;1.80;;
38238;SDS011;24035;48.900;9.188;2023-07-08T09:24:20;3.20;;;1.27;;
38238;SDS011;24035;48.900;9.188;2023-07-08T09:27:02;3.70;;;1.17;;
38238;SDS011;24035;48.900;9.188;2023-07-08T09:29:28;3.30;;;1.30;;
38238;SDS011;24035;48.900;9.188;2023-07-08T09:31:55;2.92;;;1.27;;
38238;SDS011;24035;48.900;9.188;2023-07-08T09:34:23;2.05;;;0.98;;
38238;SDS011;24035;48.900;9.188;2023-07-08T09:37:03;2.95;;;1.42;;
38238;SDS011;24035;48.900;9.188;2023-07-08T09:40:04;3.35;;;1.65;;
38238;SDS011;24035;48.900;9.188;2023-07-08T09:42:41;3.63;;;1.30;;
38238;SDS011;24035;48.900;9.188;2023-07-08T09:45:14;3.30;;;1.52;;
38238;SDS011;24035;48.900;9.188;2023-07-08T09:47:43;3.45;;;1.00;;
38238;SDS011;24035;48.900;9.188;2023-07-08T09:50:17;3.78;;;1.27;;
38238;SDS011;24035;48.900;9.188;2023-07-08T09:52:48;4.40;;;1.58;;
38238;SDS011;24035;48.900;9.188;2023-07-08T09:55:16;3.83;;;1.13;;
38238;SDS011;24035;48.900;9.188;2023-07-08T09:57:42;2.63;;;1.23;;
38238;SDS011;24035;48.900;9.188;2023-07-08T10:00:11;2.35;;;0.90;;
38238;SDS011;24035;48.900;9.188;2023-07-08T10:02:42;2.70;;;1.00;;
38238;SDS011;24035;48.900;9.188;2023-07-08T10:05:37;1.88;;;0.55;;
38238;SDS011;24035;48.900;9.188;2023-07-08T10:08:13;1.75;;;0.70;;
38238;SDS011;24035;48.900;9.188;2023-07-08T10:10:41;0.80;;;0.30;;
38238;SDS011;24035;48.900;9.188;2023-07-08T10:13:18;0.77;;;0.60;;
38238;SDS011;24035;48.900;9.188;2023-07-08T10:15:50;2.25;;;1.02;;
38238;SDS011;24035;48.900;9.188;2023-07-08T10:18:23;1.00;;;0.40;;
38238;SDS011;24035;48.900;9.188;2023-07-08T10:28:45;0.80;;;0.38;;
38238;SDS011;24035;48.900;9.188;2023-07-08T10:31:32;0.63;;;0.40;;
38238;SDS011;24035;48.900;9.188;2023-07-08T10:42:41;1.95;;;0.70;;
38238;SDS011;24035;48.900;9.188;2023-07-08T10:54:17;3.25;;;0.70;;
38238;SDS011;24035;48.900;9.188;2023-07-08T11:07:59;3.47;;;1.42;;
38238;SDS011;24035;48.900;9.188;2023-07-08T11:13:27;3.20;;;1.00;;
38238;SDS011;24035;48.900;9.188;2023-07-08T11:16:06;4.18;;;1.05;;
38238;SDS011;24035;48.900;9.188;2023-07-08T11:21:45;3.13;;;0.95;;
38238;SDS011;24035;48.900;9.188;2023-07-08T11:27:02;2.42;;;0.90;;
38238;SDS011;24035;48.900;9.188;2023-07-08T11:29:41;2.78;;;1.05;;
38238;SDS011;24035;48.900;9.188;2023-07-08T11:32:13;3.58;;;1.45;;
38238;SDS011;24035;48.900;9.188;2023-07-08T11:34:41;2.45;;;0.70;;
38238;SDS011;24035;48.900;9.188;2023-07-08T11:37:09;2.65;;;0.75;;
38238;SDS011;24035;48.900;9.188;2023-07-08T11:39:43;1.83;;;0.80;;
38238;SDS011;24035;48.900;9.188;2023-07-08T11:44:44;3.38;;;0.80;;
38238;SDS011;24035;48.900;9.188;2023-07-08T11:47:39;1.73;;;0.60;;
38238;SDS011;24035;48.900;9.188;2023-07-08T11:50:05;2.45;;;1.00;;
38238;SDS011;24035;48.900;9.188;2023-07-08T11:52:52;2.17;;;0.73;;
38238;SDS011;24035;48.900;9.188;2023-07-08T11:55:27;2.20;;;0.65;;
38238;SDS011;24035;48.900;9.188;2023-07-08T11:58:08;2.05;;;0.80;;
38238;SDS011;24035;48.900;9.188;2023-07-08T12:01:04;1.65;;;0.70;;
38238;SDS011;24035;48.900;9.188;2023-07-08T12:03:50;1.88;;;0.60;;
38238;SDS011;24035;48.900;9.188;2023-07-08T12:08:58;1.80;;;0.70;;
38238;SDS011;24035;48.900;9.188;2023-07-08T12:11:26;2.22;;;0.90;;
38238;SDS011;24035;48.900;9.188;2023-07-08T12:14:01;1.70;;;0.55;;
38238;SDS011;24035;48.900;9.188;2023-07-08T12:16:29;3.05;;;0.57;;
38238;SDS011;24035;48.900;9.188;2023-07-08T12:18:57;1.48;;;0.68;;
38238;SDS011;24035;48.900;9.188;2023-07-08T12:21:25;2.05;;;0.57;;
38238;SDS011;24035;48.900;9.188;2023-07-08T12:23:53;1.50;;;0.50;;
38238;SDS011;24035;48.900;9.188;2023-07-08T12:26:19;1.95;;;0.77;;
38238;SDS011;24035;48.900;9.188;2023-07-08T12:28:46;1.83;;;0.60;;
38238;SDS011;24035;48.900;9.188;2023-07-08T12:31:13;3.22;;;1.25;;
38238;SDS011;24035;48.900;9.188;2023-07-08T12:33:42;1.67;;;0.70;;
38238;SDS011;24035;48.900;9.188;2023-07-08T12:36:10;1.60;;;0.63;;
38238;SDS011;24035;48.900;9.188;2023-07-08T12:38:41;1.83;;;0.70;;
38238;SDS011;24035;48.900;9.188;2023-07-08T12:41:13;2.33;;;0.83;;
38238;SDS011;24035;48.900;9.188;2023-07-08T12:43:44;1.92;;;0.68;;
38238;SDS011;24035;48.900;9.188;2023-07-08T12:46:11;1.48;;;0.55;;
38238;SDS011;24035;48.900;9.188;2023-07-08T12:48:39;2.22;;;0.70;;
38238;SDS011;24035;48.900;9.188;2023-07-08T12:51:06;1.80;;;0.70;;
38238;SDS011;24035;48.900;9.188;2023-07-08T12:53:35;1.30;;;0.60;;
38238;SDS011;24035;48.900;9.188;2023-07-08T12:56:01;1.27;;;0.60;;
38238;SDS011;24035;48.900;9.188;2023-07-08T12:58:29;1.60;;;0.50;;
38238;SDS011;24035;48.900;9.188;2023-07-08T13:00:58;1.25;;;0.50;;
38238;SDS011;24035;48.900;9.188;2023-07-08T13:03:27;2.33;;;0.70;;
38238;SDS011;24035;48.900;9.188;2023-07-08T13:05:55;2.25;;;1.20;;
38238;SDS011;24035;48.900;9.188;2023-07-08T13:08:25;1.95;;;0.93;;
38238;SDS011;24035;48.900;9.188;2023-07-08T13:10:56;1.63;;;0.50;;
38238;SDS011;24035;48.900;9.188;2023-07-08T13:13:40;1.48;;;0.70;;
38238;SDS011;24035;48.900;9.188;2023-07-08T13:16:13;1.13;;;0.52;;
38238;SDS011;24035;48.900;9.188;2023-07-08T13:18:40;1.75;;;0.70;;
38238;SDS011;24035;48.900;9.188;2023-07-08T13:21:09;1.50;;;0.50;;
38238;SDS011;24035;48.900;9.188;2023-07-08T13:23:37;1.55;;;0.70;;
38238;SDS011;24035;48.900;9.188;2023-07-08T13:26:17;2.20;;;0.75;;
38238;SDS011;24035;48.900;9.188;2023-07-08T13:28:48;0.93;;;0.50;;
38238;SDS011;24035;48.900;9.188;2023-07-08T13:33:47;2.05;;;0.70;;
38238;SDS011;24035;48.900;9.188;2023-07-08T13:36:19;3.47;;;0.77;;
38238;SDS011;24035;48.900;9.188;2023-07-08T13:38:49;5.85;;;0.90;;
38238;SDS011;24035;48.900;9.188;2023-07-08T13:41:23;1.60;;;0.75;;
38238;SDS011;24035;48.900;9.188;2023-07-08T13:43:49;1.33;;;0.50;;
38238;SDS011;24035;48.900;9.188;2023-07-08T13:49:23;1.47;;;0.70;;
38238;SDS011;24035;48.900;9.188;2023-07-08T13:52:14;1.60;;;0.60;;
38238;SDS011;24035;48.900;9.188;2023-07-08T13:54:47;1.85;;;0.55;;
38238;SDS011;24035;48.900;9.188;2023-07-08T13:57:16;1.43;;;0.67;;
38238;SDS011;24035;48.900;9.188;2023-07-08T13:59:44;2.03;;;0.90;;
38238;SDS011;24035;48.900;9.188;2023-07-08T14:02:16;1.30;;;0.60;;
38238;SDS011;24035;48.900;9.188;2023-07-08T14:04:55;1.58;;;0.70;;
38238;SDS011;24035;48.900;9.188;2023-07-08T14:07:23;1.90;;;0.70;;
38238;SDS011;24035;48.900;9.188;2023-07-08T14:09:52;0.93;;;0.40;;
38238;SDS011;24035;48.900;9.188;2023-07-08T14:12:19;1.63;;;0.68;;
38238;SDS011;24035;48.900;9.188;2023-07-08T14:14:46;1.23;;;0.43;;
38238;SDS011;24035;48.900;9.188;2023-07-08T14:17:14;1.88;;;0.73;;
38238;SDS011;24035;48.900;9.188;2023-07-08T14:19:44;2.05;;;0.95;;
38238;SDS011;24035;48.900;9.188;2023-07-08T14:24:39;1.23;;;0.50;;
38238;SDS011;24035;48.900;9.188;2023-07-08T14:27:06;2.05;;;0.57;;
38238;SDS011;24035;48.900;9.188;2023-07-08T14:29:37;0.85;;;0.60;;
38238;SDS011;24035;48.900;9.188;2023-07-08T14:32:03;1.90;;;0.70;;
38238;SDS011;24035;48.900;9.188;2023-07-08T14:34:30;1.98;;;0.70;;
38238;SDS011;24035;48.900;9.188;2023-07-08T14:36:58;1.58;;;0.63;;
38238;SDS011;24035;48.900;9.188;2023-07-08T14:39:24;0.88;;;0.43;;
38238;SDS011;24035;48.900;9.188;2023-07-08T14:41:50;1.05;;;0.57;;
38238;SDS011;24035;48.900;9.188;2023-07-08T14:46:45;1.52;;;0.60;;
38238;SDS011;24035;48.900;9.188;2023-07-08T14:49:21;2.10;;;0.73;;
38238;SDS011;24035;48.900;9.188;2023-07-08T14:51:48;3.08;;;0.85;;
38238;SDS011;24035;48.900;9.188;2023-07-08T14:54:17;1.55;;;0.60;;
38238;SDS011;24035;48.900;9.188;2023-07-08T14:56:43;1.25;;;0.70;;
38238;SDS011;24035;48.900;9.188;2023-07-08T14:59:17;1.88;;;0.60;;
38238;SDS011;24035;48.900;9.188;2023-07-08T15:01:45;0.88;;;0.55;;
38238;SDS011;24035;48.900;9.188;2023-07-08T15:04:12;1.15;;;0.65;;
38238;SDS011;24035;48.900;9.188;2023-07-08T15:09:42;2.22;;;0.88;;
38238;SDS011;24035;48.900;9.188;2023-07-08T15:12:09;1.08;;;0.50;;
38238;SDS011;24035;48.900;9.188;2023-07-08T15:14:37;1.33;;;0.65;;
38238;SDS011;24035;48.900;9.188;2023-07-08T15:17:14;1.90;;;0.70;;
38238;SDS011;24035;48.900;9.188;2023-07-08T15:19:42;1.42;;;0.75;;
38238;SDS011;24035;48.900;9.188;2023-07-08T15:22:09;1.52;;;0.63;;
38238;SDS011;24035;48.900;9.188;2023-07-08T15:24:36;1.92;;;0.63;;
38238;SDS011;24035;48.900;9.188;2023-07-08T15:27:02;1.48;;;0.57;;
38238;SDS011;24035;48.900;9.188;2023-07-08T15:29:29;2.17;;;1.00;;
38238;SDS011;24035;48.900;9.188;2023-07-08T15:31:55;0.88;;;0.50;;
38238;SDS011;24035;48.900;9.188;2023-07-08T15:34:21;1.65;;;0.70;;
38238;SDS011;24035;48.900;9.188;2023-07-08T15:36:48;2.58;;;1.30;;
38238;SDS011;24035;48.900;9.188;2023-07-08T15:39:15;1.77;;;0.73;;
38238;SDS011;24035;48.900;9.188;2023-07-08T15:41:41;1.30;;;0.63;;
38238;SDS011;24035;48.900;9.188;2023-07-08T15:44:09;5.32;;;1.40;;
38238;SDS011;24035;48.900;9.188;2023-07-08T15:46:37;2.45;;;1.05;;
38238;SDS011;24035;48.900;9.188;2023-07-08T15:49:09;2.10;;;0.90;;
38238;SDS011;24035;48.900;9.188;2023-07-08T15:51:39;1.70;;;0.88;;
38238;SDS011;24035;48.900;9.188;2023-07-08T15:54:05;1.73;;;0.60;;
38238;SDS011;24035;48.900;9.188;2023-07-08T15:56:31;2.08;;;1.10;;
38238;SDS011;24035;48.900;9.188;2023-07-08T15:58:57;1.60;;;0.90;;
38238;SDS011;24035;48.900;9.188;2023-07-08T16:01:23;1.58;;;0.60;;
38238;SDS011;24035;48.900;9.188;2023-07-08T16:03:50;2.75;;;0.80;;
38238;SDS011;24035;48.900;9.188;2023-07-08T16:06:16;2.08;;;0.80;;
38238;SDS011;24035;48.900;9.188;2023-07-08T16:08:43;2.00;;;0.88;;
38238;SDS011;24035;48.900;9.188;2023-07-08T16:11:14;1.67;;;0.95;;
38238;SDS011;24035;48.900;9.188;2023-07-08T16:13:42;2.53;;;0.95;;
38238;SDS011;24035;48.900;9.188;2023-07-08T16:16:10;2.78;;;0.90;;
38238;SDS011;24035;48.900;9.188;2023-07-08T16:18:37;2.10;;;0.95;;
38238;SDS011;24035;48.900;9.188;2023-07-08T16:21:04;2.78;;;0.77;;
38238;SDS011;24035;48.900;9.188;2023-07-08T16:23:30;2.58;;;0.82;;
38238;SDS011;24035;48.900;9.188;2023-07-08T16:25:56;1.75;;;1.02;;
38238;SDS011;24035;48.900;9.188;2023-07-08T16:28:41;2.25;;;0.90;;
38238;SDS011;24035;48.900;9.188;2023-07-08T16:31:19;1.10;;;0.60;;
38238;SDS011;24035;48.900;9.188;2023-07-08T16:33:46;3.00;;;1.25;;
38238;SDS011;24035;48.900;9.188;2023-07-08T16:36:18;1.52;;;0.73;;
38238;SDS011;24035;48.900;9.188;2023-07-08T16:38:45;2.05;;;0.77;;
38238;SDS011;24035;48.900;9.188;2023-07-08T16:41:12;1.92;;;0.73;;
38238;SDS011;24035;48.900;9.188;2023-07-08T16:43:39;2.03;;;0.80;;